sensor_id;sensor_type;location;lat;lon;timestamp;P1;durP1;ratioP1;P2;durP2;ratioP2
6027;SDS011;3042;43.194;27.646;2023-06-26T00:01:07;60.03;;;54.70;;
6027;SDS011;3042;43.194;27.646;2023-06-26T00:03:34;52.13;;;47.70;;
6027;SDS011;3042;43.194;27.646;2023-06-26T00:06:01;49.10;;;44.40;;
6027;SDS011;3042;43.194;27.646;2023-06-26T00:08:28;50.27;;;45.30;;
6027;SDS011;3042;43.194;27.646;2023-06-26T00:10:55;57.00;;;48.60;;
6027;SDS011;3042;43.194;27.646;2023-06-26T00:13:24;54.23;;;48.90;;
6027;SDS011;3042;43.194;27.646;2023-06-26T00:15:51;51.73;;;46.93;;
6027;SDS011;3042;43.194;27.646;2023-06-26T00:18:18;50.63;;;45.80;;
6027;SDS011;3042;43.194;27.646;2023-06-26T00:20:45;53.30;;;48.50;;
6027;SDS011;3042;43.194;27.646;2023-06-26T00:23:12;51.50;;;46.40;;
6027;SDS011;3042;43.194;27.646;2023-06-26T00:25:42;52.27;;;47.87;;
6027;SDS011;3042;43.194;27.646;2023-06-26T00:28:10;55.03;;;49.30;;
6027;SDS011;3042;43.194;27.646;2023-06-26T00:30:38;49.77;;;46.27;;
6027;SDS011;3042;43.194;27.646;2023-06-26T00:33:05;52.67;;;47.90;;
6027;SDS011;3042;43.194;27.646;2023-06-26T00:35:32;80.30;;;35.73;;
6027;SDS011;3042;43.194;27.646;2023-06-26T00:38:00;38.00;;;34.37;;
6027;SDS011;3042;43.194;27.646;2023-06-26T00:40:27;40.50;;;34.00;;
6027;SDS011;3042;43.194;27.646;2023-06-26T00:42:55;47.93;;;38.43;;
6027;SDS011;3042;43.194;27.646;2023-06-26T00:45:22;41.00;;;31.53;;
6027;SDS011;3042;43.194;27.646;2023-06-26T00:47:50;46.97;;;42.07;;
6027;SDS011;3042;43.194;27.646;2023-06-26T00:50:18;42.93;;;39.20;;
6027;SDS011;3042;43.194;27.646;2023-06-26T00:52:47;49.47;;;44.90;;
6027;SDS011;3042;43.194;27.646;2023-06-26T00:55:14;49.03;;;44.77;;
6027;SDS011;3042;43.194;27.646;2023-06-26T00:57:41;50.03;;;45.83;;
6027;SDS011;3042;43.194;27.646;2023-06-26T01:00:11;48.83;;;44.67;;
6027;SDS011;3042;43.194;27.646;2023-06-26T01:02:39;48.97;;;43.73;;
6027;SDS011;3042;43.194;27.646;2023-06-26T01:05:08;47.40;;;43.30;;
6027;SDS011;3042;43.194;27.646;2023-06-26T01:07:37;49.23;;;44.40;;
6027;SDS011;3042;43.194;27.646;2023-06-26T01:10:06;55.57;;;50.30;;
6027;SDS011;3042;43.194;27.646;2023-06-26T01:12:33;58.07;;;53.37;;
6027;SDS011;3042;43.194;27.646;2023-06-26T01:15:02;50.63;;;46.37;;
6027;SDS011;3042;43.194;27.646;2023-06-26T01:17:30;51.33;;;46.70;;
6027;SDS011;3042;43.194;27.646;2023-06-26T01:19:58;51.30;;;47.50;;
6027;SDS011;3042;43.194;27.646;2023-06-26T01:22:31;54.57;;;49.97;;
6027;SDS011;3042;43.194;27.646;2023-06-26T01:25:12;36.80;;;33.37;;
6027;SDS011;3042;43.194;27.646;2023-06-26T01:27:46;34.47;;;31.00;;
6027;SDS011;3042;43.194;27.646;2023-06-26T01:30:15;37.60;;;34.17;;
6027;SDS011;3042;43.194;27.646;2023-06-26T01:32:43;34.60;;;31.10;;
6027;SDS011;3042;43.194;27.646;2023-06-26T01:35:11;53.50;;;43.83;;
6027;SDS011;3042;43.194;27.646;2023-06-26T01:37:39;48.43;;;43.30;;
6027;SDS011;3042;43.194;27.646;2023-06-26T01:40:07;50.00;;;45.03;;
6027;SDS011;3042;43.194;27.646;2023-06-26T01:42:34;45.57;;;40.90;;
6027;SDS011;3042;43.194;27.646;2023-06-26T01:45:05;44.03;;;40.07;;
6027;SDS011;3042;43.194;27.646;2023-06-26T01:47:36;44.17;;;40.33;;
6027;SDS011;3042;43.194;27.646;2023-06-26T01:50:09;55.53;;;46.80;;
6027;SDS011;3042;43.194;27.646;2023-06-26T01:52:40;47.03;;;42.80;;
6027;SDS011;3042;43.194;27.646;2023-06-26T01:55:12;49.70;;;45.60;;
6027;SDS011;3042;43.194;27.646;2023-06-26T01:57:44;48.10;;;44.23;;
6027;SDS011;3042;43.194;27.646;2023-06-26T02:00:15;57.13;;;51.33;;
6027;SDS011;3042;43.194;27.646;2023-06-26T02:02:44;57.40;;;53.07;;
6027;SDS011;3042;43.194;27.646;2023-06-26T02:05:11;59.00;;;54.20;;
6027;SDS011;3042;43.194;27.646;2023-06-26T02:07:39;59.70;;;55.37;;
6027;SDS011;3042;43.194;27.646;2023-06-26T02:10:06;56.30;;;51.10;;
6027;SDS011;3042;43.194;27.646;2023-06-26T02:12:34;43.47;;;39.60;;
6027;SDS011;3042;43.194;27.646;2023-06-26T02:15:02;52.33;;;48.00;;
6027;SDS011;3042;43.194;27.646;2023-06-26T02:17:30;40.23;;;36.23;;
6027;SDS011;3042;43.194;27.646;2023-06-26T02:19:57;43.50;;;40.20;;
6027;SDS011;3042;43.194;27.646;2023-06-26T02:22:24;45.77;;;41.80;;
6027;SDS011;3042;43.194;27.646;2023-06-26T02:24:53;53.03;;;48.37;;
6027;SDS011;3042;43.194;27.646;2023-06-26T02:27:20;53.70;;;48.70;;
6027;SDS011;3042;43.194;27.646;2023-06-26T02:29:47;50.57;;;45.80;;
6027;SDS011;3042;43.194;27.646;2023-06-26T02:32:15;53.00;;;48.27;;
6027;SDS011;3042;43.194;27.646;2023-06-26T02:34:43;58.30;;;52.80;;
6027;SDS011;3042;43.194;27.646;2023-06-26T02:37:10;53.23;;;48.30;;
6027;SDS011;3042;43.194;27.646;2023-06-26T02:39:37;50.90;;;46.20;;
6027;SDS011;3042;43.194;27.646;2023-06-26T02:42:04;51.60;;;47.03;;
6027;SDS011;3042;43.194;27.646;2023-06-26T02:44:31;52.90;;;47.50;;
6027;SDS011;3042;43.194;27.646;2023-06-26T02:46:59;53.03;;;47.80;;
6027;SDS011;3042;43.194;27.646;2023-06-26T02:49:26;57.33;;;52.10;;
6027;SDS011;3042;43.194;27.646;2023-06-26T02:51:54;62.83;;;56.80;;
6027;SDS011;3042;43.194;27.646;2023-06-26T02:54:21;61.90;;;56.20;;
6027;SDS011;3042;43.194;27.646;2023-06-26T02:56:48;62.47;;;57.40;;
6027;SDS011;3042;43.194;27.646;2023-06-26T02:59:15;61.73;;;55.10;;
6027;SDS011;3042;43.194;27.646;2023-06-26T03:01:43;52.53;;;44.53;;
6027;SDS011;3042;43.194;27.646;2023-06-26T03:04:10;48.83;;;39.83;;
6027;SDS011;3042;43.194;27.646;2023-06-26T03:06:37;59.70;;;53.53;;
6027;SDS011;3042;43.194;27.646;2023-06-26T03:09:05;46.30;;;41.40;;
6027;SDS011;3042;43.194;27.646;2023-06-26T03:11:32;53.63;;;48.23;;
6027;SDS011;3042;43.194;27.646;2023-06-26T03:13:59;53.83;;;49.20;;
6027;SDS011;3042;43.194;27.646;2023-06-26T03:16:26;53.70;;;48.87;;
6027;SDS011;3042;43.194;27.646;2023-06-26T03:18:53;55.90;;;50.10;;
6027;SDS011;3042;43.194;27.646;2023-06-26T03:21:20;55.67;;;50.97;;
6027;SDS011;3042;43.194;27.646;2023-06-26T03:23:47;52.43;;;47.67;;
6027;SDS011;3042;43.194;27.646;2023-06-26T03:26:15;55.40;;;49.97;;
6027;SDS011;3042;43.194;27.646;2023-06-26T03:28:42;56.67;;;51.83;;
6027;SDS011;3042;43.194;27.646;2023-06-26T03:31:09;53.83;;;49.30;;
6027;SDS011;3042;43.194;27.646;2023-06-26T03:33:37;55.73;;;50.87;;
6027;SDS011;3042;43.194;27.646;2023-06-26T03:36:04;58.47;;;53.50;;
6027;SDS011;3042;43.194;27.646;2023-06-26T03:38:32;56.10;;;50.80;;
6027;SDS011;3042;43.194;27.646;2023-06-26T03:40:59;60.60;;;51.67;;
6027;SDS011;3042;43.194;27.646;2023-06-26T03:43:27;57.67;;;51.37;;
6027;SDS011;3042;43.194;27.646;2023-06-26T03:45:54;54.17;;;49.27;;
6027;SDS011;3042;43.194;27.646;2023-06-26T03:48:21;54.20;;;49.00;;
6027;SDS011;3042;43.194;27.646;2023-06-26T03:50:48;55.60;;;50.53;;
6027;SDS011;3042;43.194;27.646;2023-06-26T03:53:15;64.60;;;50.70;;
6027;SDS011;3042;43.194;27.646;2023-06-26T03:55:42;58.47;;;49.93;;
6027;SDS011;3042;43.194;27.646;2023-06-26T03:58:10;53.47;;;47.67;;
6027;SDS011;3042;43.194;27.646;2023-06-26T04:00:38;52.67;;;47.70;;
6027;SDS011;3042;43.194;27.646;2023-06-26T04:03:05;55.17;;;49.77;;
6027;SDS011;3042;43.194;27.646;2023-06-26T04:05:32;53.67;;;48.00;;
6027;SDS011;3042;43.194;27.646;2023-06-26T04:07:59;53.63;;;47.33;;
6027;SDS011;3042;43.194;27.646;2023-06-26T04:10:26;47.03;;;42.70;;
6027;SDS011;3042;43.194;27.646;2023-06-26T04:12:53;52.93;;;43.03;;
6027;SDS011;3042;43.194;27.646;2023-06-26T04:15:20;46.57;;;41.53;;
6027;SDS011;3042;43.194;27.646;2023-06-26T04:17:49;102.23;;;47.30;;
6027;SDS011;3042;43.194;27.646;2023-06-26T04:20:16;56.40;;;41.60;;
6027;SDS011;3042;43.194;27.646;2023-06-26T04:22:43;41.50;;;37.50;;
6027;SDS011;3042;43.194;27.646;2023-06-26T04:25:10;32.60;;;29.30;;
6027;SDS011;3042;43.194;27.646;2023-06-26T04:27:38;32.53;;;29.73;;
6027;SDS011;3042;43.194;27.646;2023-06-26T04:30:05;32.60;;;29.43;;
6027;SDS011;3042;43.194;27.646;2023-06-26T04:32:33;32.13;;;28.90;;
6027;SDS011;3042;43.194;27.646;2023-06-26T04:35:02;29.03;;;26.20;;
6027;SDS011;3042;43.194;27.646;2023-06-26T04:37:29;32.20;;;29.00;;
6027;SDS011;3042;43.194;27.646;2023-06-26T04:39:56;36.00;;;24.17;;
6027;SDS011;3042;43.194;27.646;2023-06-26T04:42:23;66.00;;;25.70;;
6027;SDS011;3042;43.194;27.646;2023-06-26T04:44:50;31.40;;;19.43;;
6027;SDS011;3042;43.194;27.646;2023-06-26T04:47:17;39.40;;;20.00;;
6027;SDS011;3042;43.194;27.646;2023-06-26T04:49:44;20.80;;;18.80;;
6027;SDS011;3042;43.194;27.646;2023-06-26T04:52:12;20.80;;;19.03;;
6027;SDS011;3042;43.194;27.646;2023-06-26T04:54:40;18.60;;;17.33;;
6027;SDS011;3042;43.194;27.646;2023-06-26T04:57:07;24.20;;;21.00;;
6027;SDS011;3042;43.194;27.646;2023-06-26T04:59:36;106.17;;;43.93;;
6027;SDS011;3042;43.194;27.646;2023-06-26T05:02:04;25.50;;;22.87;;
6027;SDS011;3042;43.194;27.646;2023-06-26T05:04:31;32.87;;;24.97;;
6027;SDS011;3042;43.194;27.646;2023-06-26T05:06:58;52.50;;;28.50;;
6027;SDS011;3042;43.194;27.646;2023-06-26T05:09:27;26.43;;;24.40;;
6027;SDS011;3042;43.194;27.646;2023-06-26T05:11:54;30.97;;;27.83;;
6027;SDS011;3042;43.194;27.646;2023-06-26T05:14:21;28.57;;;25.57;;
6027;SDS011;3042;43.194;27.646;2023-06-26T05:16:48;28.60;;;25.73;;
6027;SDS011;3042;43.194;27.646;2023-06-26T05:19:15;34.23;;;27.10;;
6027;SDS011;3042;43.194;27.646;2023-06-26T05:21:42;38.93;;;26.20;;
6027;SDS011;3042;43.194;27.646;2023-06-26T05:24:10;29.83;;;26.43;;
6027;SDS011;3042;43.194;27.646;2023-06-26T05:26:43;33.97;;;26.93;;
6027;SDS011;3042;43.194;27.646;2023-06-26T05:29:11;36.93;;;28.13;;
6027;SDS011;3042;43.194;27.646;2023-06-26T05:31:40;47.83;;;29.10;;
6027;SDS011;3042;43.194;27.646;2023-06-26T05:34:09;31.63;;;27.23;;
6027;SDS011;3042;43.194;27.646;2023-06-26T05:36:37;41.67;;;27.23;;
6027;SDS011;3042;43.194;27.646;2023-06-26T05:39:07;30.60;;;27.53;;
6027;SDS011;3042;43.194;27.646;2023-06-26T05:41:34;47.57;;;27.80;;
6027;SDS011;3042;43.194;27.646;2023-06-26T05:44:03;28.77;;;25.83;;
6027;SDS011;3042;43.194;27.646;2023-06-26T05:46:30;34.60;;;25.70;;
6027;SDS011;3042;43.194;27.646;2023-06-26T05:48:57;28.33;;;25.63;;
6027;SDS011;3042;43.194;27.646;2023-06-26T05:51:26;29.00;;;26.00;;
6027;SDS011;3042;43.194;27.646;2023-06-26T05:53:54;29.00;;;24.53;;
6027;SDS011;3042;43.194;27.646;2023-06-26T05:56:21;23.80;;;21.80;;
6027;SDS011;3042;43.194;27.646;2023-06-26T05:58:48;22.57;;;21.00;;
6027;SDS011;3042;43.194;27.646;2023-06-26T06:01:18;28.53;;;25.27;;
6027;SDS011;3042;43.194;27.646;2023-06-26T06:03:46;27.23;;;24.53;;
6027;SDS011;3042;43.194;27.646;2023-06-26T06:06:13;25.90;;;23.83;;
6027;SDS011;3042;43.194;27.646;2023-06-26T06:08:41;26.67;;;23.20;;
6027;SDS011;3042;43.194;27.646;2023-06-26T06:11:08;24.20;;;21.80;;
6027;SDS011;3042;43.194;27.646;2023-06-26T06:13:35;31.00;;;23.30;;
6027;SDS011;3042;43.194;27.646;2023-06-26T06:16:02;28.47;;;23.90;;
6027;SDS011;3042;43.194;27.646;2023-06-26T06:18:31;25.87;;;23.67;;
6027;SDS011;3042;43.194;27.646;2023-06-26T06:20:58;32.07;;;25.57;;
6027;SDS011;3042;43.194;27.646;2023-06-26T06:23:25;44.50;;;28.60;;
6027;SDS011;3042;43.194;27.646;2023-06-26T06:25:52;34.10;;;26.63;;
6027;SDS011;3042;43.194;27.646;2023-06-26T06:28:19;29.73;;;26.70;;
6027;SDS011;3042;43.194;27.646;2023-06-26T06:30:46;28.93;;;26.20;;
6027;SDS011;3042;43.194;27.646;2023-06-26T06:33:13;27.67;;;25.60;;
6027;SDS011;3042;43.194;27.646;2023-06-26T06:35:42;48.63;;;27.57;;
6027;SDS011;3042;43.194;27.646;2023-06-26T06:38:09;28.20;;;25.43;;
6027;SDS011;3042;43.194;27.646;2023-06-26T06:40:36;28.10;;;25.17;;
6027;SDS011;3042;43.194;27.646;2023-06-26T06:43:03;22.10;;;20.40;;
6027;SDS011;3042;43.194;27.646;2023-06-26T06:45:30;29.93;;;20.93;;
6027;SDS011;3042;43.194;27.646;2023-06-26T06:47:57;29.07;;;26.17;;
6027;SDS011;3042;43.194;27.646;2023-06-26T06:50:24;32.03;;;19.70;;
6027;SDS011;3042;43.194;27.646;2023-06-26T06:52:52;28.43;;;19.10;;
6027;SDS011;3042;43.194;27.646;2023-06-26T06:55:19;18.20;;;16.93;;
6027;SDS011;3042;43.194;27.646;2023-06-26T06:57:46;39.10;;;21.17;;
6027;SDS011;3042;43.194;27.646;2023-06-26T07:00:14;30.93;;;19.33;;
6027;SDS011;3042;43.194;27.646;2023-06-26T07:02:42;21.00;;;19.67;;
6027;SDS011;3042;43.194;27.646;2023-06-26T07:05:27;22.87;;;20.53;;
6027;SDS011;3042;43.194;27.646;2023-06-26T07:07:56;25.53;;;22.97;;
6027;SDS011;3042;43.194;27.646;2023-06-26T07:10:23;29.80;;;22.37;;
6027;SDS011;3042;43.194;27.646;2023-06-26T07:12:50;24.90;;;19.90;;
6027;SDS011;3042;43.194;27.646;2023-06-26T07:15:16;30.27;;;21.47;;
6027;SDS011;3042;43.194;27.646;2023-06-26T07:17:44;26.03;;;23.67;;
6027;SDS011;3042;43.194;27.646;2023-06-26T07:20:10;21.73;;;19.60;;
6027;SDS011;3042;43.194;27.646;2023-06-26T07:22:41;19.00;;;17.50;;
6027;SDS011;3042;43.194;27.646;2023-06-26T07:25:11;21.90;;;19.17;;
6027;SDS011;3042;43.194;27.646;2023-06-26T07:27:38;94.10;;;19.90;;
6027;SDS011;3042;43.194;27.646;2023-06-26T07:30:06;17.90;;;16.50;;
6027;SDS011;3042;43.194;27.646;2023-06-26T07:32:34;17.87;;;16.10;;
6027;SDS011;3042;43.194;27.646;2023-06-26T07:35:01;19.20;;;14.73;;
6027;SDS011;3042;43.194;27.646;2023-06-26T07:37:28;15.73;;;14.73;;
6027;SDS011;3042;43.194;27.646;2023-06-26T07:39:55;22.73;;;15.07;;
6027;SDS011;3042;43.194;27.646;2023-06-26T07:42:24;17.27;;;16.00;;
6027;SDS011;3042;43.194;27.646;2023-06-26T07:44:51;16.70;;;15.33;;
6027;SDS011;3042;43.194;27.646;2023-06-26T07:47:18;19.60;;;17.70;;
6027;SDS011;3042;43.194;27.646;2023-06-26T07:49:45;17.23;;;15.40;;
6027;SDS011;3042;43.194;27.646;2023-06-26T07:52:12;16.07;;;14.50;;
6027;SDS011;3042;43.194;27.646;2023-06-26T07:54:40;18.10;;;16.70;;
6027;SDS011;3042;43.194;27.646;2023-06-26T07:57:07;18.77;;;17.33;;
6027;SDS011;3042;43.194;27.646;2023-06-26T07:59:37;21.27;;;19.80;;
6027;SDS011;3042;43.194;27.646;2023-06-26T08:02:05;64.60;;;31.13;;
6027;SDS011;3042;43.194;27.646;2023-06-26T08:04:32;22.00;;;20.00;;
6027;SDS011;3042;43.194;27.646;2023-06-26T08:07:00;20.80;;;19.00;;
6027;SDS011;3042;43.194;27.646;2023-06-26T08:09:29;44.10;;;20.20;;
6027;SDS011;3042;43.194;27.646;2023-06-26T08:11:56;15.97;;;14.43;;
6027;SDS011;3042;43.194;27.646;2023-06-26T08:14:24;17.73;;;16.13;;
6027;SDS011;3042;43.194;27.646;2023-06-26T08:16:52;16.83;;;15.33;;
6027;SDS011;3042;43.194;27.646;2023-06-26T08:19:20;18.40;;;16.40;;
6027;SDS011;3042;43.194;27.646;2023-06-26T08:21:47;21.13;;;18.90;;
6027;SDS011;3042;43.194;27.646;2023-06-26T08:24:15;35.73;;;16.90;;
6027;SDS011;3042;43.194;27.646;2023-06-26T08:26:44;21.40;;;15.97;;
6027;SDS011;3042;43.194;27.646;2023-06-26T08:29:11;17.73;;;15.90;;
6027;SDS011;3042;43.194;27.646;2023-06-26T08:31:39;16.03;;;14.73;;
6027;SDS011;3042;43.194;27.646;2023-06-26T08:34:08;20.03;;;17.80;;
6027;SDS011;3042;43.194;27.646;2023-06-26T08:36:35;19.37;;;17.10;;
6027;SDS011;3042;43.194;27.646;2023-06-26T08:39:02;18.00;;;16.33;;
6027;SDS011;3042;43.194;27.646;2023-06-26T08:41:30;16.73;;;14.87;;
6027;SDS011;3042;43.194;27.646;2023-06-26T08:43:57;31.00;;;28.63;;
6027;SDS011;3042;43.194;27.646;2023-06-26T08:46:24;19.40;;;16.83;;
6027;SDS011;3042;43.194;27.646;2023-06-26T08:48:54;21.90;;;15.13;;
6027;SDS011;3042;43.194;27.646;2023-06-26T08:51:25;16.37;;;15.20;;
6027;SDS011;3042;43.194;27.646;2023-06-26T08:53:56;24.23;;;15.30;;
6027;SDS011;3042;43.194;27.646;2023-06-26T08:56:24;45.40;;;16.50;;
6027;SDS011;3042;43.194;27.646;2023-06-26T08:58:54;32.37;;;15.53;;
6027;SDS011;3042;43.194;27.646;2023-06-26T09:01:21;13.30;;;12.40;;
6027;SDS011;3042;43.194;27.646;2023-06-26T09:03:50;20.60;;;14.83;;
6027;SDS011;3042;43.194;27.646;2023-06-26T09:06:17;14.50;;;13.40;;
6027;SDS011;3042;43.194;27.646;2023-06-26T09:08:46;18.87;;;17.47;;
6027;SDS011;3042;43.194;27.646;2023-06-26T09:11:13;16.33;;;14.90;;
6027;SDS011;3042;43.194;27.646;2023-06-26T09:13:40;19.60;;;17.70;;
6027;SDS011;3042;43.194;27.646;2023-06-26T09:16:08;16.03;;;14.63;;
6027;SDS011;3042;43.194;27.646;2023-06-26T09:18:36;17.60;;;16.00;;
6027;SDS011;3042;43.194;27.646;2023-06-26T09:21:06;17.90;;;16.20;;
6027;SDS011;3042;43.194;27.646;2023-06-26T09:23:34;17.60;;;16.27;;
6027;SDS011;3042;43.194;27.646;2023-06-26T09:26:03;18.20;;;16.90;;
6027;SDS011;3042;43.194;27.646;2023-06-26T09:28:31;17.97;;;16.70;;
6027;SDS011;3042;43.194;27.646;2023-06-26T09:31:02;17.70;;;16.50;;
6027;SDS011;3042;43.194;27.646;2023-06-26T09:33:33;20.10;;;18.20;;
6027;SDS011;3042;43.194;27.646;2023-06-26T09:36:01;22.47;;;20.00;;
6027;SDS011;3042;43.194;27.646;2023-06-26T09:38:31;19.90;;;18.67;;
6027;SDS011;3042;43.194;27.646;2023-06-26T09:40:59;20.60;;;19.30;;
6027;SDS011;3042;43.194;27.646;2023-06-26T09:43:28;20.87;;;19.27;;
6027;SDS011;3042;43.194;27.646;2023-06-26T09:45:56;28.40;;;26.40;;
6027;SDS011;3042;43.194;27.646;2023-06-26T09:48:23;21.00;;;19.47;;
6027;SDS011;3042;43.194;27.646;2023-06-26T09:50:50;22.53;;;21.03;;
6027;SDS011;3042;43.194;27.646;2023-06-26T09:53:17;22.33;;;20.67;;
6027;SDS011;3042;43.194;27.646;2023-06-26T09:55:46;24.10;;;22.03;;
6027;SDS011;3042;43.194;27.646;2023-06-26T09:58:14;22.40;;;20.40;;
6027;SDS011;3042;43.194;27.646;2023-06-26T10:00:44;21.50;;;20.20;;
6027;SDS011;3042;43.194;27.646;2023-06-26T10:03:11;40.07;;;28.37;;
6027;SDS011;3042;43.194;27.646;2023-06-26T10:05:39;24.40;;;22.50;;
6027;SDS011;3042;43.194;27.646;2023-06-26T10:08:07;23.50;;;21.45;;
6027;SDS011;3042;43.194;27.646;2023-06-26T10:10:35;24.00;;;21.50;;
6027;SDS011;3042;43.194;27.646;2023-06-26T10:13:04;19.40;;;18.00;;
6027;SDS011;3042;43.194;27.646;2023-06-26T10:15:35;26.87;;;17.20;;
6027;SDS011;3042;43.194;27.646;2023-06-26T10:18:05;17.10;;;15.83;;
6027;SDS011;3042;43.194;27.646;2023-06-26T10:20:32;18.23;;;16.50;;
6027;SDS011;3042;43.194;27.646;2023-06-26T10:23:00;21.27;;;17.57;;
6027;SDS011;3042;43.194;27.646;2023-06-26T10:25:28;31.30;;;19.23;;
6027;SDS011;3042;43.194;27.646;2023-06-26T10:27:58;17.30;;;16.30;;
6027;SDS011;3042;43.194;27.646;2023-06-26T10:30:29;19.77;;;18.07;;
6027;SDS011;3042;43.194;27.646;2023-06-26T10:32:59;26.47;;;17.13;;
6027;SDS011;3042;43.194;27.646;2023-06-26T10:35:28;24.60;;;22.00;;
6027;SDS011;3042;43.194;27.646;2023-06-26T10:38:00;44.50;;;22.57;;
6027;SDS011;3042;43.194;27.646;2023-06-26T10:40:33;26.10;;;18.10;;
6027;SDS011;3042;43.194;27.646;2023-06-26T10:43:07;21.17;;;19.57;;
6027;SDS011;3042;43.194;27.646;2023-06-26T10:45:35;19.10;;;17.20;;
6027;SDS011;3042;43.194;27.646;2023-06-26T10:48:02;21.10;;;18.30;;
6027;SDS011;3042;43.194;27.646;2023-06-26T10:50:31;21.70;;;19.60;;
6027;SDS011;3042;43.194;27.646;2023-06-26T10:53:14;21.07;;;18.80;;
6027;SDS011;3042;43.194;27.646;2023-06-26T10:55:50;22.03;;;19.80;;
6027;SDS011;3042;43.194;27.646;2023-06-26T10:58:32;21.27;;;19.37;;
6027;SDS011;3042;43.194;27.646;2023-06-26T11:01:19;20.03;;;18.10;;
6027;SDS011;3042;43.194;27.646;2023-06-26T11:03:48;22.17;;;19.87;;
6027;SDS011;3042;43.194;27.646;2023-06-26T11:06:29;22.90;;;16.57;;
6027;SDS011;3042;43.194;27.646;2023-06-26T11:08:59;17.90;;;16.90;;
6027;SDS011;3042;43.194;27.646;2023-06-26T11:14:40;20.40;;;17.07;;
6027;SDS011;3042;43.194;27.646;2023-06-26T11:17:08;19.47;;;18.33;;
6027;SDS011;3042;43.194;27.646;2023-06-26T11:19:36;18.63;;;17.20;;
6027;SDS011;3042;43.194;27.646;2023-06-26T11:22:05;26.97;;;25.17;;
6027;SDS011;3042;43.194;27.646;2023-06-26T11:24:32;18.57;;;17.27;;
6027;SDS011;3042;43.194;27.646;2023-06-26T11:27:00;18.20;;;17.00;;
6027;SDS011;3042;43.194;27.646;2023-06-26T11:29:29;49.03;;;22.20;;
6027;SDS011;3042;43.194;27.646;2023-06-26T11:32:03;27.93;;;21.87;;
6027;SDS011;3042;43.194;27.646;2023-06-26T11:34:32;40.87;;;19.47;;
6027;SDS011;3042;43.194;27.646;2023-06-26T11:37:00;18.47;;;16.77;;
6027;SDS011;3042;43.194;27.646;2023-06-26T11:39:31;22.07;;;19.23;;
6027;SDS011;3042;43.194;27.646;2023-06-26T11:41:59;18.30;;;17.07;;
6027;SDS011;3042;43.194;27.646;2023-06-26T11:44:29;18.70;;;17.30;;
6027;SDS011;3042;43.194;27.646;2023-06-26T11:46:56;17.93;;;16.70;;
6027;SDS011;3042;43.194;27.646;2023-06-26T11:49:24;17.90;;;16.80;;
6027;SDS011;3042;43.194;27.646;2023-06-26T11:51:52;19.23;;;17.70;;
6027;SDS011;3042;43.194;27.646;2023-06-26T11:54:23;20.07;;;18.70;;
6027;SDS011;3042;43.194;27.646;2023-06-26T11:56:53;19.03;;;17.73;;
6027;SDS011;3042;43.194;27.646;2023-06-26T11:59:23;21.50;;;19.60;;
6027;SDS011;3042;43.194;27.646;2023-06-26T12:01:50;18.67;;;17.03;;
6027;SDS011;3042;43.194;27.646;2023-06-26T12:04:18;20.60;;;19.20;;
6027;SDS011;3042;43.194;27.646;2023-06-26T12:06:46;20.60;;;18.97;;
6027;SDS011;3042;43.194;27.646;2023-06-26T12:09:15;20.10;;;18.40;;
6027;SDS011;3042;43.194;27.646;2023-06-26T12:11:44;20.67;;;18.57;;
6027;SDS011;3042;43.194;27.646;2023-06-26T12:14:15;21.17;;;18.77;;
6027;SDS011;3042;43.194;27.646;2023-06-26T12:16:44;21.50;;;19.90;;
6027;SDS011;3042;43.194;27.646;2023-06-26T12:19:11;21.10;;;18.90;;
6027;SDS011;3042;43.194;27.646;2023-06-26T12:21:47;24.23;;;21.92;;
6027;SDS011;3042;43.194;27.646;2023-06-26T12:24:18;21.03;;;19.03;;
6027;SDS011;3042;43.194;27.646;2023-06-26T12:26:47;19.23;;;18.00;;
6027;SDS011;3042;43.194;27.646;2023-06-26T12:29:18;20.17;;;18.23;;
6027;SDS011;3042;43.194;27.646;2023-06-26T12:31:48;20.90;;;18.73;;
6027;SDS011;3042;43.194;27.646;2023-06-26T12:34:17;26.23;;;18.67;;
6027;SDS011;3042;43.194;27.646;2023-06-26T12:36:46;18.73;;;17.00;;
6027;SDS011;3042;43.194;27.646;2023-06-26T12:39:14;34.27;;;18.33;;
6027;SDS011;3042;43.194;27.646;2023-06-26T12:41:46;23.40;;;17.70;;
6027;SDS011;3042;43.194;27.646;2023-06-26T12:44:18;19.70;;;17.97;;
6027;SDS011;3042;43.194;27.646;2023-06-26T12:46:46;18.73;;;17.47;;
6027;SDS011;3042;43.194;27.646;2023-06-26T12:49:15;18.90;;;17.40;;
6027;SDS011;3042;43.194;27.646;2023-06-26T12:51:43;18.33;;;17.20;;
6027;SDS011;3042;43.194;27.646;2023-06-26T12:54:10;18.87;;;17.57;;
6027;SDS011;3042;43.194;27.646;2023-06-26T12:56:38;17.87;;;16.63;;
6027;SDS011;3042;43.194;27.646;2023-06-26T12:59:05;20.60;;;18.40;;
6027;SDS011;3042;43.194;27.646;2023-06-26T13:01:33;19.53;;;17.80;;
6027;SDS011;3042;43.194;27.646;2023-06-26T13:04:00;21.70;;;20.10;;
6027;SDS011;3042;43.194;27.646;2023-06-26T13:06:29;21.83;;;19.73;;
6027;SDS011;3042;43.194;27.646;2023-06-26T13:08:56;18.37;;;16.67;;
6027;SDS011;3042;43.194;27.646;2023-06-26T13:11:24;18.60;;;17.60;;
6027;SDS011;3042;43.194;27.646;2023-06-26T13:13:51;17.77;;;16.60;;
6027;SDS011;3042;43.194;27.646;2023-06-26T13:16:18;18.60;;;17.20;;
6027;SDS011;3042;43.194;27.646;2023-06-26T13:18:46;23.33;;;18.83;;
6027;SDS011;3042;43.194;27.646;2023-06-26T13:21:14;19.17;;;17.97;;
6027;SDS011;3042;43.194;27.646;2023-06-26T13:23:41;23.13;;;18.00;;
6027;SDS011;3042;43.194;27.646;2023-06-26T13:26:08;20.90;;;18.90;;
6027;SDS011;3042;43.194;27.646;2023-06-26T13:28:36;30.07;;;19.23;;
6027;SDS011;3042;43.194;27.646;2023-06-26T13:31:03;21.43;;;18.90;;
6027;SDS011;3042;43.194;27.646;2023-06-26T13:33:30;21.90;;;19.40;;
6027;SDS011;3042;43.194;27.646;2023-06-26T13:35:59;26.73;;;20.57;;
6027;SDS011;3042;43.194;27.646;2023-06-26T13:38:26;20.17;;;18.50;;
6027;SDS011;3042;43.194;27.646;2023-06-26T13:40:53;22.07;;;18.90;;
6027;SDS011;3042;43.194;27.646;2023-06-26T13:43:22;21.93;;;20.23;;
6027;SDS011;3042;43.194;27.646;2023-06-26T13:45:49;21.27;;;19.67;;
6027;SDS011;3042;43.194;27.646;2023-06-26T13:48:16;20.17;;;18.43;;
6027;SDS011;3042;43.194;27.646;2023-06-26T13:50:44;22.27;;;20.33;;
6027;SDS011;3042;43.194;27.646;2023-06-26T13:53:12;24.23;;;21.10;;
6027;SDS011;3042;43.194;27.646;2023-06-26T13:55:40;19.60;;;18.20;;
6027;SDS011;3042;43.194;27.646;2023-06-26T13:58:07;21.17;;;19.70;;
6027;SDS011;3042;43.194;27.646;2023-06-26T14:00:34;22.33;;;20.70;;
6027;SDS011;3042;43.194;27.646;2023-06-26T14:03:02;28.33;;;23.60;;
6027;SDS011;3042;43.194;27.646;2023-06-26T14:05:31;22.57;;;18.37;;
6027;SDS011;3042;43.194;27.646;2023-06-26T14:07:58;24.83;;;22.27;;
6027;SDS011;3042;43.194;27.646;2023-06-26T14:10:27;24.13;;;22.17;;
6027;SDS011;3042;43.194;27.646;2023-06-26T14:12:54;19.87;;;18.20;;
6027;SDS011;3042;43.194;27.646;2023-06-26T14:15:21;21.60;;;19.90;;
6027;SDS011;3042;43.194;27.646;2023-06-26T14:17:48;28.87;;;23.67;;
6027;SDS011;3042;43.194;27.646;2023-06-26T14:20:15;20.20;;;18.50;;
6027;SDS011;3042;43.194;27.646;2023-06-26T14:22:43;34.53;;;21.40;;
6027;SDS011;3042;43.194;27.646;2023-06-26T14:25:10;19.63;;;18.40;;
6027;SDS011;3042;43.194;27.646;2023-06-26T14:27:39;25.60;;;23.30;;
6027;SDS011;3042;43.194;27.646;2023-06-26T14:30:06;47.40;;;22.43;;
6027;SDS011;3042;43.194;27.646;2023-06-26T14:32:34;34.50;;;32.03;;
6027;SDS011;3042;43.194;27.646;2023-06-26T14:35:01;21.70;;;18.60;;
6027;SDS011;3042;43.194;27.646;2023-06-26T14:37:29;19.50;;;18.30;;
6027;SDS011;3042;43.194;27.646;2023-06-26T14:39:56;30.97;;;28.97;;
6027;SDS011;3042;43.194;27.646;2023-06-26T14:42:24;21.07;;;19.23;;